Esther, Alberta

Past 24 Hour Conditions

This table is a summary of hourly weather conditions for the past 24 hours. This summary includes the following parameters: temperature, humidity, dew point, wind speed and direction, air pressure, visibility and/or wind chill and humidex.
Date / Time
(MDT)
Conditions Temp (°F) Humidity (%) Dew Point (°F) Wind (mph) Pressure (inches) Vis (mi) Humidex
20 August 2014
10:00 N/A 64 75 56 WNW 10 29.8 N/A *
9:00 N/A 60 84 55 W 5 29.8 N/A *
8:00 N/A 59 87 55 W 7 29.8 N/A *
7:00 N/A 57   91 55 W 6 29.8 N/A *
6:00 N/A 58 92 56 W 5 29.7 N/A *
5:00 N/A 59 92 56 W 6 29.7 N/A *
4:00 N/A 60 92 58 W 6 29.7 N/A *
3:00 N/A 60 92 57 WSW 8 29.7 N/A *
2:00 N/A 60 92 58 NNW 4 29.6 N/A *
1:00 N/A 60 91 57 ENE 9 29.6 N/A *
00:00 N/A 60 91 58 E 7 29.7 N/A *
19 August 2014
23:00 N/A 62 90 59 WSW 6 29.7 N/A *
22:00 N/A 62 88 59 WNW 6 29.7 N/A *
21:00 N/A 66 78 59 NW 7 29.7 N/A *
20:00 N/A 68 74 59 NNW 6 29.7 N/A *
19:00 N/A 70 64 57 N 7 29.6 N/A *
18:00 N/A 74 55 57 N 10 29.6 N/A 80
17:00 N/A 74 55 57 NNE 8 29.6 N/A 80
16:00 N/A 74 55 57 N 10 29.7 N/A 79
15:00 N/A 75   47 54 N 10 29.7 N/A 80
14:00 N/A 75   52 56 NW 11 29.7 N/A 80
13:00 N/A 75   54 57 NW 11 29.6 N/A 82
12:00 N/A 73 55 56 N 11 29.7 N/A 78
11:00 N/A 71 62 57 N 12 29.7 N/A 77
10:00 N/A 70 64 57 N 10 29.7 N/A *
N/A
Not available
 ↑ 
Highest temperature
 ↓ 
Lowest temperature
*
Value not significant.

If you require additional historical weather information, please visit Climate Data Online.